sensor_id;sensor_type;location;lat;lon;timestamp;P1;durP1;ratioP1;P2;durP2;ratioP2
7575;SDS011;3829;50.798;4.358;2023-10-08T00:00:44;5.63;;;2.80;;
7575;SDS011;3829;50.798;4.358;2023-10-08T00:03:14;6.67;;;3.13;;
7575;SDS011;3829;50.798;4.358;2023-10-08T00:05:40;8.77;;;3.27;;
7575;SDS011;3829;50.798;4.358;2023-10-08T00:08:06;4.67;;;2.70;;
7575;SDS011;3829;50.798;4.358;2023-10-08T00:10:37;4.80;;;2.90;;
7575;SDS011;3829;50.798;4.358;2023-10-08T00:13:06;7.77;;;3.17;;
7575;SDS011;3829;50.798;4.358;2023-10-08T00:15:35;6.33;;;3.03;;
7575;SDS011;3829;50.798;4.358;2023-10-08T00:18:02;9.17;;;3.30;;
7575;SDS011;3829;50.798;4.358;2023-10-08T00:20:29;8.90;;;3.30;;
7575;SDS011;3829;50.798;4.358;2023-10-08T00:23:01;5.80;;;3.00;;
7575;SDS011;3829;50.798;4.358;2023-10-08T00:25:32;7.67;;;3.10;;
7575;SDS011;3829;50.798;4.358;2023-10-08T00:27:59;8.87;;;2.87;;
7575;SDS011;3829;50.798;4.358;2023-10-08T00:30:26;6.37;;;3.00;;
7575;SDS011;3829;50.798;4.358;2023-10-08T00:32:52;7.13;;;3.63;;
7575;SDS011;3829;50.798;4.358;2023-10-08T00:35:18;5.03;;;2.90;;
7575;SDS011;3829;50.798;4.358;2023-10-08T00:37:45;6.90;;;3.17;;
7575;SDS011;3829;50.798;4.358;2023-10-08T00:40:13;5.23;;;2.90;;
7575;SDS011;3829;50.798;4.358;2023-10-08T00:42:44;8.83;;;3.53;;
7575;SDS011;3829;50.798;4.358;2023-10-08T00:45:11;4.63;;;3.03;;
7575;SDS011;3829;50.798;4.358;2023-10-08T00:47:41;7.60;;;3.30;;
7575;SDS011;3829;50.798;4.358;2023-10-08T00:50:08;6.30;;;3.10;;
7575;SDS011;3829;50.798;4.358;2023-10-08T00:52:35;7.07;;;3.37;;
7575;SDS011;3829;50.798;4.358;2023-10-08T00:55:05;9.33;;;3.07;;
7575;SDS011;3829;50.798;4.358;2023-10-08T00:57:39;6.33;;;3.50;;
7575;SDS011;3829;50.798;4.358;2023-10-08T01:00:08;5.57;;;3.17;;
7575;SDS011;3829;50.798;4.358;2023-10-08T01:02:42;5.07;;;2.83;;
7575;SDS011;3829;50.798;4.358;2023-10-08T01:05:12;6.23;;;3.50;;
7575;SDS011;3829;50.798;4.358;2023-10-08T01:07:39;6.97;;;3.33;;
7575;SDS011;3829;50.798;4.358;2023-10-08T01:10:09;9.77;;;3.43;;
7575;SDS011;3829;50.798;4.358;2023-10-08T01:12:35;6.37;;;4.00;;
7575;SDS011;3829;50.798;4.358;2023-10-08T01:15:09;8.07;;;3.53;;
7575;SDS011;3829;50.798;4.358;2023-10-08T01:17:42;10.40;;;3.57;;
7575;SDS011;3829;50.798;4.358;2023-10-08T01:20:16;6.47;;;3.40;;
7575;SDS011;3829;50.798;4.358;2023-10-08T01:23:04;6.40;;;3.60;;
7575;SDS011;3829;50.798;4.358;2023-10-08T01:25:34;7.77;;;3.30;;
7575;SDS011;3829;50.798;4.358;2023-10-08T01:28:00;8.30;;;3.23;;
7575;SDS011;3829;50.798;4.358;2023-10-08T01:30:33;6.37;;;3.30;;
7575;SDS011;3829;50.798;4.358;2023-10-08T01:33:05;8.37;;;3.50;;
7575;SDS011;3829;50.798;4.358;2023-10-08T01:35:36;8.40;;;3.53;;
7575;SDS011;3829;50.798;4.358;2023-10-08T01:38:01;9.93;;;3.60;;
7575;SDS011;3829;50.798;4.358;2023-10-08T01:40:28;5.27;;;2.93;;
7575;SDS011;3829;50.798;4.358;2023-10-08T01:42:56;4.93;;;3.30;;
7575;SDS011;3829;50.798;4.358;2023-10-08T01:45:25;8.40;;;3.53;;
7575;SDS011;3829;50.798;4.358;2023-10-08T01:47:51;5.67;;;3.40;;
7575;SDS011;3829;50.798;4.358;2023-10-08T01:50:19;10.40;;;3.83;;
7575;SDS011;3829;50.798;4.358;2023-10-08T01:52:46;4.37;;;3.20;;
7575;SDS011;3829;50.798;4.358;2023-10-08T01:55:13;6.93;;;3.90;;
7575;SDS011;3829;50.798;4.358;2023-10-08T01:57:44;5.60;;;2.97;;
7575;SDS011;3829;50.798;4.358;2023-10-08T02:00:11;10.40;;;3.40;;
7575;SDS011;3829;50.798;4.358;2023-10-08T02:02:39;6.30;;;3.20;;
7575;SDS011;3829;50.798;4.358;2023-10-08T02:05:06;4.27;;;3.10;;
7575;SDS011;3829;50.798;4.358;2023-10-08T02:07:32;8.77;;;3.60;;
7575;SDS011;3829;50.798;4.358;2023-10-08T02:09:59;7.30;;;3.43;;
7575;SDS011;3829;50.798;4.358;2023-10-08T02:12:24;6.23;;;3.50;;
7575;SDS011;3829;50.798;4.358;2023-10-08T02:14:50;8.00;;;3.33;;
7575;SDS011;3829;50.798;4.358;2023-10-08T02:17:16;6.90;;;3.17;;
7575;SDS011;3829;50.798;4.358;2023-10-08T02:19:42;9.13;;;3.63;;
7575;SDS011;3829;50.798;4.358;2023-10-08T02:22:08;8.03;;;3.50;;
7575;SDS011;3829;50.798;4.358;2023-10-08T02:24:35;9.10;;;3.43;;
7575;SDS011;3829;50.798;4.358;2023-10-08T02:27:01;7.17;;;3.37;;
7575;SDS011;3829;50.798;4.358;2023-10-08T02:29:28;6.53;;;3.13;;
7575;SDS011;3829;50.798;4.358;2023-10-08T02:31:56;5.97;;;3.37;;
7575;SDS011;3829;50.798;4.358;2023-10-08T02:34:22;5.53;;;3.43;;
7575;SDS011;3829;50.798;4.358;2023-10-08T02:36:48;8.23;;;3.63;;
7575;SDS011;3829;50.798;4.358;2023-10-08T02:39:14;9.77;;;3.40;;
7575;SDS011;3829;50.798;4.358;2023-10-08T02:41:46;5.63;;;3.33;;
7575;SDS011;3829;50.798;4.358;2023-10-08T02:44:13;6.40;;;3.17;;
7575;SDS011;3829;50.798;4.358;2023-10-08T02:46:40;7.70;;;3.70;;
7575;SDS011;3829;50.798;4.358;2023-10-08T02:49:07;8.13;;;4.13;;
7575;SDS011;3829;50.798;4.358;2023-10-08T02:51:36;8.63;;;3.77;;
7575;SDS011;3829;50.798;4.358;2023-10-08T02:54:03;6.07;;;3.73;;
7575;SDS011;3829;50.798;4.358;2023-10-08T02:56:31;5.17;;;3.10;;
7575;SDS011;3829;50.798;4.358;2023-10-08T02:58:57;8.17;;;3.60;;
7575;SDS011;3829;50.798;4.358;2023-10-08T03:01:25;7.27;;;3.47;;
7575;SDS011;3829;50.798;4.358;2023-10-08T03:03:51;8.83;;;3.27;;
7575;SDS011;3829;50.798;4.358;2023-10-08T03:06:27;7.43;;;3.50;;
7575;SDS011;3829;50.798;4.358;2023-10-08T03:08:57;9.40;;;3.73;;
7575;SDS011;3829;50.798;4.358;2023-10-08T03:11:28;5.03;;;3.47;;
7575;SDS011;3829;50.798;4.358;2023-10-08T03:13:56;5.50;;;3.27;;
7575;SDS011;3829;50.798;4.358;2023-10-08T03:16:22;8.97;;;3.97;;
7575;SDS011;3829;50.798;4.358;2023-10-08T03:18:54;7.03;;;2.93;;
7575;SDS011;3829;50.798;4.358;2023-10-08T03:21:22;7.67;;;3.30;;
7575;SDS011;3829;50.798;4.358;2023-10-08T03:24:07;4.03;;;3.00;;
7575;SDS011;3829;50.798;4.358;2023-10-08T03:26:43;8.30;;;3.40;;
7575;SDS011;3829;50.798;4.358;2023-10-08T03:29:10;6.53;;;3.53;;
7575;SDS011;3829;50.798;4.358;2023-10-08T03:31:41;8.40;;;3.50;;
7575;SDS011;3829;50.798;4.358;2023-10-08T03:34:15;8.43;;;3.73;;
7575;SDS011;3829;50.798;4.358;2023-10-08T03:36:43;8.73;;;3.90;;
7575;SDS011;3829;50.798;4.358;2023-10-08T03:39:11;6.53;;;3.40;;
7575;SDS011;3829;50.798;4.358;2023-10-08T03:41:39;8.60;;;3.63;;
7575;SDS011;3829;50.798;4.358;2023-10-08T03:44:05;7.17;;;3.67;;
7575;SDS011;3829;50.798;4.358;2023-10-08T03:46:41;7.33;;;3.87;;
7575;SDS011;3829;50.798;4.358;2023-10-08T03:49:09;7.83;;;3.07;;
7575;SDS011;3829;50.798;4.358;2023-10-08T03:51:45;7.07;;;3.47;;
7575;SDS011;3829;50.798;4.358;2023-10-08T03:54:11;7.63;;;3.33;;
7575;SDS011;3829;50.798;4.358;2023-10-08T03:56:41;6.03;;;3.33;;
7575;SDS011;3829;50.798;4.358;2023-10-08T03:59:10;7.90;;;4.60;;
7575;SDS011;3829;50.798;4.358;2023-10-08T04:01:39;6.93;;;3.43;;
7575;SDS011;3829;50.798;4.358;2023-10-08T04:04:06;6.07;;;3.43;;
7575;SDS011;3829;50.798;4.358;2023-10-08T04:06:37;7.10;;;3.60;;
7575;SDS011;3829;50.798;4.358;2023-10-08T04:09:04;7.50;;;3.53;;
7575;SDS011;3829;50.798;4.358;2023-10-08T04:11:41;6.87;;;3.37;;
7575;SDS011;3829;50.798;4.358;2023-10-08T04:14:18;6.77;;;3.97;;
7575;SDS011;3829;50.798;4.358;2023-10-08T04:16:44;6.73;;;3.10;;
7575;SDS011;3829;50.798;4.358;2023-10-08T04:19:11;7.17;;;3.70;;
7575;SDS011;3829;50.798;4.358;2023-10-08T04:21:37;7.03;;;3.80;;
7575;SDS011;3829;50.798;4.358;2023-10-08T04:24:06;4.83;;;3.27;;
7575;SDS011;3829;50.798;4.358;2023-10-08T04:26:33;8.70;;;4.00;;
7575;SDS011;3829;50.798;4.358;2023-10-08T04:29:00;5.13;;;3.50;;
7575;SDS011;3829;50.798;4.358;2023-10-08T04:31:28;4.70;;;3.07;;
7575;SDS011;3829;50.798;4.358;2023-10-08T04:34:08;8.07;;;4.13;;
7575;SDS011;3829;50.798;4.358;2023-10-08T04:36:41;8.60;;;3.80;;
7575;SDS011;3829;50.798;4.358;2023-10-08T04:39:10;9.57;;;3.30;;
7575;SDS011;3829;50.798;4.358;2023-10-08T04:41:40;6.87;;;3.20;;
7575;SDS011;3829;50.798;4.358;2023-10-08T04:44:08;8.23;;;4.03;;
7575;SDS011;3829;50.798;4.358;2023-10-08T04:46:40;6.37;;;3.63;;
7575;SDS011;3829;50.798;4.358;2023-10-08T04:49:12;9.83;;;4.00;;
7575;SDS011;3829;50.798;4.358;2023-10-08T04:51:48;6.30;;;3.10;;
7575;SDS011;3829;50.798;4.358;2023-10-08T04:54:15;8.67;;;3.63;;
7575;SDS011;3829;50.798;4.358;2023-10-08T04:56:42;7.33;;;3.97;;
7575;SDS011;3829;50.798;4.358;2023-10-08T04:59:08;7.33;;;4.40;;
7575;SDS011;3829;50.798;4.358;2023-10-08T05:01:36;10.47;;;3.87;;
7575;SDS011;3829;50.798;4.358;2023-10-08T05:04:06;6.27;;;3.00;;
7575;SDS011;3829;50.798;4.358;2023-10-08T05:06:48;4.97;;;3.27;;
7575;SDS011;3829;50.798;4.358;2023-10-08T05:09:25;6.33;;;3.80;;
7575;SDS011;3829;50.798;4.358;2023-10-08T05:12:04;6.97;;;3.93;;
7575;SDS011;3829;50.798;4.358;2023-10-08T05:14:49;5.03;;;3.57;;
7575;SDS011;3829;50.798;4.358;2023-10-08T05:17:35;9.67;;;3.80;;
7575;SDS011;3829;50.798;4.358;2023-10-08T05:20:20;7.63;;;3.53;;
7575;SDS011;3829;50.798;4.358;2023-10-08T05:22:56;5.17;;;3.57;;
7575;SDS011;3829;50.798;4.358;2023-10-08T05:25:42;7.20;;;3.80;;
7575;SDS011;3829;50.798;4.358;2023-10-08T05:28:23;9.70;;;3.83;;
7575;SDS011;3829;50.798;4.358;2023-10-08T05:30:49;12.27;;;4.23;;
7575;SDS011;3829;50.798;4.358;2023-10-08T05:33:26;6.97;;;3.40;;
7575;SDS011;3829;50.798;4.358;2023-10-08T05:36:09;10.80;;;4.20;;
7575;SDS011;3829;50.798;4.358;2023-10-08T05:38:35;8.77;;;4.07;;
7575;SDS011;3829;50.798;4.358;2023-10-08T05:41:13;7.00;;;4.13;;
7575;SDS011;3829;50.798;4.358;2023-10-08T05:43:53;7.67;;;3.53;;
7575;SDS011;3829;50.798;4.358;2023-10-08T05:46:29;8.87;;;3.83;;
7575;SDS011;3829;50.798;4.358;2023-10-08T05:49:11;10.97;;;4.67;;
7575;SDS011;3829;50.798;4.358;2023-10-08T05:51:51;11.67;;;3.90;;
7575;SDS011;3829;50.798;4.358;2023-10-08T05:54:37;7.97;;;3.40;;
7575;SDS011;3829;50.798;4.358;2023-10-08T05:57:22;8.63;;;4.30;;
7575;SDS011;3829;50.798;4.358;2023-10-08T06:00:03;11.07;;;4.00;;
7575;SDS011;3829;50.798;4.358;2023-10-08T06:02:49;6.90;;;3.40;;
7575;SDS011;3829;50.798;4.358;2023-10-08T06:05:25;5.97;;;3.60;;
7575;SDS011;3829;50.798;4.358;2023-10-08T06:07:58;6.37;;;3.90;;
7575;SDS011;3829;50.798;4.358;2023-10-08T06:10:36;5.80;;;3.70;;
7575;SDS011;3829;50.798;4.358;2023-10-08T06:13:20;8.90;;;4.50;;
7575;SDS011;3829;50.798;4.358;2023-10-08T06:15:55;6.43;;;3.57;;
7575;SDS011;3829;50.798;4.358;2023-10-08T06:18:31;7.10;;;3.50;;
7575;SDS011;3829;50.798;4.358;2023-10-08T06:20:58;7.07;;;3.87;;
7575;SDS011;3829;50.798;4.358;2023-10-08T06:23:26;9.67;;;3.53;;
7575;SDS011;3829;50.798;4.358;2023-10-08T06:25:57;8.13;;;4.03;;
7575;SDS011;3829;50.798;4.358;2023-10-08T06:28:24;12.17;;;3.83;;
7575;SDS011;3829;50.798;4.358;2023-10-08T06:30:51;7.77;;;3.63;;
7575;SDS011;3829;50.798;4.358;2023-10-08T06:33:18;7.43;;;4.03;;
7575;SDS011;3829;50.798;4.358;2023-10-08T06:35:45;6.97;;;3.93;;
7575;SDS011;3829;50.798;4.358;2023-10-08T06:38:26;5.83;;;3.53;;
7575;SDS011;3829;50.798;4.358;2023-10-08T06:40:57;8.97;;;3.87;;
7575;SDS011;3829;50.798;4.358;2023-10-08T06:43:33;8.73;;;3.80;;
7575;SDS011;3829;50.798;4.358;2023-10-08T06:46:01;6.87;;;3.57;;
7575;SDS011;3829;50.798;4.358;2023-10-08T06:48:28;4.77;;;3.07;;
7575;SDS011;3829;50.798;4.358;2023-10-08T06:50:54;7.93;;;3.80;;
7575;SDS011;3829;50.798;4.358;2023-10-08T06:53:22;7.47;;;3.33;;
7575;SDS011;3829;50.798;4.358;2023-10-08T06:55:48;6.57;;;3.37;;
7575;SDS011;3829;50.798;4.358;2023-10-08T06:58:21;6.60;;;4.10;;
7575;SDS011;3829;50.798;4.358;2023-10-08T07:00:48;5.60;;;3.47;;
7575;SDS011;3829;50.798;4.358;2023-10-08T07:03:14;8.20;;;3.50;;
7575;SDS011;3829;50.798;4.358;2023-10-08T07:05:43;7.07;;;3.93;;
7575;SDS011;3829;50.798;4.358;2023-10-08T07:08:19;7.77;;;3.97;;
7575;SDS011;3829;50.798;4.358;2023-10-08T07:10:48;5.90;;;3.60;;
7575;SDS011;3829;50.798;4.358;2023-10-08T07:13:14;7.77;;;3.40;;
7575;SDS011;3829;50.798;4.358;2023-10-08T07:15:42;7.97;;;3.80;;
7575;SDS011;3829;50.798;4.358;2023-10-08T07:18:10;10.17;;;4.07;;
7575;SDS011;3829;50.798;4.358;2023-10-08T07:20:39;7.80;;;4.10;;
7575;SDS011;3829;50.798;4.358;2023-10-08T07:23:06;10.33;;;3.87;;
7575;SDS011;3829;50.798;4.358;2023-10-08T07:25:45;5.03;;;3.73;;
7575;SDS011;3829;50.798;4.358;2023-10-08T07:28:17;8.43;;;4.57;;
7575;SDS011;3829;50.798;4.358;2023-10-08T07:30:44;7.70;;;3.70;;
7575;SDS011;3829;50.798;4.358;2023-10-08T07:33:10;8.07;;;3.97;;
7575;SDS011;3829;50.798;4.358;2023-10-08T07:35:44;11.13;;;4.30;;
7575;SDS011;3829;50.798;4.358;2023-10-08T07:38:20;8.50;;;3.80;;
7575;SDS011;3829;50.798;4.358;2023-10-08T07:40:47;9.10;;;4.13;;
7575;SDS011;3829;50.798;4.358;2023-10-08T07:43:13;6.80;;;4.00;;
7575;SDS011;3829;50.798;4.358;2023-10-08T07:45:39;7.30;;;4.13;;
7575;SDS011;3829;50.798;4.358;2023-10-08T07:48:10;6.40;;;3.63;;
7575;SDS011;3829;50.798;4.358;2023-10-08T07:50:40;8.90;;;4.57;;
7575;SDS011;3829;50.798;4.358;2023-10-08T07:53:11;7.63;;;4.10;;
7575;SDS011;3829;50.798;4.358;2023-10-08T07:55:43;11.40;;;4.17;;
7575;SDS011;3829;50.798;4.358;2023-10-08T07:58:10;8.60;;;3.80;;
7575;SDS011;3829;50.798;4.358;2023-10-08T08:00:36;6.17;;;3.87;;
7575;SDS011;3829;50.798;4.358;2023-10-08T08:03:04;11.43;;;4.17;;
7575;SDS011;3829;50.798;4.358;2023-10-08T08:05:31;8.40;;;4.13;;
7575;SDS011;3829;50.798;4.358;2023-10-08T08:07:57;6.03;;;4.20;;
7575;SDS011;3829;50.798;4.358;2023-10-08T08:10:30;8.13;;;4.23;;
7575;SDS011;3829;50.798;4.358;2023-10-08T08:12:55;8.10;;;3.50;;
7575;SDS011;3829;50.798;4.358;2023-10-08T08:15:21;8.73;;;4.20;;
7575;SDS011;3829;50.798;4.358;2023-10-08T08:17:48;9.70;;;4.17;;
7575;SDS011;3829;50.798;4.358;2023-10-08T08:20:14;6.77;;;3.60;;
7575;SDS011;3829;50.798;4.358;2023-10-08T08:22:43;9.30;;;4.93;;
7575;SDS011;3829;50.798;4.358;2023-10-08T08:25:19;6.47;;;3.77;;
7575;SDS011;3829;50.798;4.358;2023-10-08T08:27:59;9.33;;;4.07;;
7575;SDS011;3829;50.798;4.358;2023-10-08T08:30:25;8.07;;;3.67;;
7575;SDS011;3829;50.798;4.358;2023-10-08T08:32:51;8.30;;;4.23;;
7575;SDS011;3829;50.798;4.358;2023-10-08T08:35:17;6.03;;;4.03;;
7575;SDS011;3829;50.798;4.358;2023-10-08T08:37:45;9.50;;;5.03;;
7575;SDS011;3829;50.798;4.358;2023-10-08T08:40:12;7.03;;;4.10;;
7575;SDS011;3829;50.798;4.358;2023-10-08T08:42:46;7.70;;;4.00;;
7575;SDS011;3829;50.798;4.358;2023-10-08T08:45:17;8.30;;;4.47;;
7575;SDS011;3829;50.798;4.358;2023-10-08T08:47:45;9.27;;;4.50;;
7575;SDS011;3829;50.798;4.358;2023-10-08T08:50:11;8.90;;;4.60;;
7575;SDS011;3829;50.798;4.358;2023-10-08T08:52:37;11.37;;;4.20;;
7575;SDS011;3829;50.798;4.358;2023-10-08T08:55:04;10.47;;;4.23;;
7575;SDS011;3829;50.798;4.358;2023-10-08T08:57:38;10.00;;;5.60;;
7575;SDS011;3829;50.798;4.358;2023-10-08T09:00:05;9.37;;;4.73;;
7575;SDS011;3829;50.798;4.358;2023-10-08T09:02:34;11.10;;;5.77;;
7575;SDS011;3829;50.798;4.358;2023-10-08T09:05:00;12.57;;;5.13;;
7575;SDS011;3829;50.798;4.358;2023-10-08T09:07:38;10.43;;;5.53;;
7575;SDS011;3829;50.798;4.358;2023-10-08T09:10:19;13.47;;;5.10;;
7575;SDS011;3829;50.798;4.358;2023-10-08T09:12:50;15.80;;;5.73;;
7575;SDS011;3829;50.798;4.358;2023-10-08T09:15:17;9.87;;;5.33;;
7575;SDS011;3829;50.798;4.358;2023-10-08T09:17:43;9.23;;;4.90;;
7575;SDS011;3829;50.798;4.358;2023-10-08T09:20:09;15.37;;;5.53;;
7575;SDS011;3829;50.798;4.358;2023-10-08T09:22:37;13.93;;;5.40;;
7575;SDS011;3829;50.798;4.358;2023-10-08T09:25:03;10.83;;;5.03;;
7575;SDS011;3829;50.798;4.358;2023-10-08T09:27:33;11.33;;;5.33;;
7575;SDS011;3829;50.798;4.358;2023-10-08T09:30:04;15.43;;;4.87;;
7575;SDS011;3829;50.798;4.358;2023-10-08T09:32:33;12.33;;;4.70;;
7575;SDS011;3829;50.798;4.358;2023-10-08T09:35:04;8.00;;;5.00;;
7575;SDS011;3829;50.798;4.358;2023-10-08T09:37:30;11.53;;;5.30;;
7575;SDS011;3829;50.798;4.358;2023-10-08T09:39:56;15.70;;;5.40;;
7575;SDS011;3829;50.798;4.358;2023-10-08T09:42:23;9.63;;;5.23;;
7575;SDS011;3829;50.798;4.358;2023-10-08T09:44:50;14.10;;;5.10;;
7575;SDS011;3829;50.798;4.358;2023-10-08T09:47:19;11.33;;;5.47;;
7575;SDS011;3829;50.798;4.358;2023-10-08T09:49:53;12.53;;;5.27;;
7575;SDS011;3829;50.798;4.358;2023-10-08T09:52:29;13.57;;;5.40;;
7575;SDS011;3829;50.798;4.358;2023-10-08T09:55:02;10.87;;;4.67;;
7575;SDS011;3829;50.798;4.358;2023-10-08T09:57:35;12.40;;;5.70;;
7575;SDS011;3829;50.798;4.358;2023-10-08T10:00:01;10.83;;;5.17;;
7575;SDS011;3829;50.798;4.358;2023-10-08T10:02:29;14.07;;;5.60;;
7575;SDS011;3829;50.798;4.358;2023-10-08T10:04:56;10.93;;;5.63;;
7575;SDS011;3829;50.798;4.358;2023-10-08T10:07:21;14.07;;;5.67;;
7575;SDS011;3829;50.798;4.358;2023-10-08T10:09:50;10.90;;;4.83;;
7575;SDS011;3829;50.798;4.358;2023-10-08T10:12:26;13.60;;;5.50;;
7575;SDS011;3829;50.798;4.358;2023-10-08T10:14:53;8.40;;;4.77;;
7575;SDS011;3829;50.798;4.358;2023-10-08T10:17:22;10.87;;;4.77;;
7575;SDS011;3829;50.798;4.358;2023-10-08T10:19:53;9.50;;;4.93;;
7575;SDS011;3829;50.798;4.358;2023-10-08T10:24:57;13.83;;;5.33;;
7575;SDS011;3829;50.798;4.358;2023-10-08T10:27:25;14.90;;;5.77;;
7575;SDS011;3829;50.798;4.358;2023-10-08T10:29:51;12.80;;;5.80;;
7575;SDS011;3829;50.798;4.358;2023-10-08T10:32:32;14.57;;;5.43;;
7575;SDS011;3829;50.798;4.358;2023-10-08T10:34:59;10.33;;;4.87;;
7575;SDS011;3829;50.798;4.358;2023-10-08T10:37:28;14.43;;;5.37;;
7575;SDS011;3829;50.798;4.358;2023-10-08T10:40:06;11.20;;;4.93;;
7575;SDS011;3829;50.798;4.358;2023-10-08T10:42:36;16.10;;;5.50;;
7575;SDS011;3829;50.798;4.358;2023-10-08T10:45:11;13.10;;;5.60;;
7575;SDS011;3829;50.798;4.358;2023-10-08T10:47:56;11.17;;;5.10;;
7575;SDS011;3829;50.798;4.358;2023-10-08T10:50:35;15.20;;;5.53;;
7575;SDS011;3829;50.798;4.358;2023-10-08T10:53:12;12.83;;;5.37;;
7575;SDS011;3829;50.798;4.358;2023-10-08T10:55:39;13.93;;;5.37;;
7575;SDS011;3829;50.798;4.358;2023-10-08T10:58:13;9.93;;;4.63;;
7575;SDS011;3829;50.798;4.358;2023-10-08T11:00:41;8.57;;;4.27;;
7575;SDS011;3829;50.798;4.358;2023-10-08T11:03:12;11.77;;;5.20;;
7575;SDS011;3829;50.798;4.358;2023-10-08T11:05:42;11.70;;;5.63;;
7575;SDS011;3829;50.798;4.358;2023-10-08T11:08:13;12.03;;;5.33;;
7575;SDS011;3829;50.798;4.358;2023-10-08T11:10:41;13.37;;;5.87;;
7575;SDS011;3829;50.798;4.358;2023-10-08T11:13:14;11.73;;;4.83;;
7575;SDS011;3829;50.798;4.358;2023-10-08T11:15:40;10.27;;;4.50;;
7575;SDS011;3829;50.798;4.358;2023-10-08T11:18:09;15.40;;;5.20;;
7575;SDS011;3829;50.798;4.358;2023-10-08T11:20:35;13.67;;;5.60;;
7575;SDS011;3829;50.798;4.358;2023-10-08T11:23:05;12.10;;;5.60;;
7575;SDS011;3829;50.798;4.358;2023-10-08T11:25:41;10.30;;;5.00;;
7575;SDS011;3829;50.798;4.358;2023-10-08T11:28:25;13.50;;;5.37;;
7575;SDS011;3829;50.798;4.358;2023-10-08T11:30:52;13.30;;;5.67;;
7575;SDS011;3829;50.798;4.358;2023-10-08T11:33:18;11.33;;;6.20;;
7575;SDS011;3829;50.798;4.358;2023-10-08T11:38:23;14.97;;;6.67;;
7575;SDS011;3829;50.798;4.358;2023-10-08T11:40:49;12.80;;;6.10;;
7575;SDS011;3829;50.798;4.358;2023-10-08T11:43:21;10.83;;;4.73;;
7575;SDS011;3829;50.798;4.358;2023-10-08T11:45:48;10.80;;;5.10;;
7575;SDS011;3829;50.798;4.358;2023-10-08T11:48:14;10.87;;;5.07;;
7575;SDS011;3829;50.798;4.358;2023-10-08T11:50:47;8.50;;;5.20;;
7575;SDS011;3829;50.798;4.358;2023-10-08T11:53:15;12.07;;;5.40;;
7575;SDS011;3829;50.798;4.358;2023-10-08T11:55:44;16.77;;;5.33;;
7575;SDS011;3829;50.798;4.358;2023-10-08T11:58:12;10.20;;;5.57;;
7575;SDS011;3829;50.798;4.358;2023-10-08T12:00:43;14.33;;;6.00;;
7575;SDS011;3829;50.798;4.358;2023-10-08T12:03:10;10.40;;;4.97;;
7575;SDS011;3829;50.798;4.358;2023-10-08T12:05:37;10.80;;;5.57;;
7575;SDS011;3829;50.798;4.358;2023-10-08T12:08:12;11.17;;;5.07;;
7575;SDS011;3829;50.798;4.358;2023-10-08T12:10:41;12.27;;;5.73;;
7575;SDS011;3829;50.798;4.358;2023-10-08T12:13:11;9.40;;;4.97;;
7575;SDS011;3829;50.798;4.358;2023-10-08T12:15:37;9.70;;;5.47;;
7575;SDS011;3829;50.798;4.358;2023-10-08T12:18:03;9.93;;;5.57;;
7575;SDS011;3829;50.798;4.358;2023-10-08T12:20:35;11.27;;;5.33;;
7575;SDS011;3829;50.798;4.358;2023-10-08T12:23:02;13.17;;;5.47;;
7575;SDS011;3829;50.798;4.358;2023-10-08T12:25:29;11.33;;;5.53;;
7575;SDS011;3829;50.798;4.358;2023-10-08T12:27:57;9.83;;;5.17;;
7575;SDS011;3829;50.798;4.358;2023-10-08T12:30:27;14.73;;;5.60;;
7575;SDS011;3829;50.798;4.358;2023-10-08T12:32:55;13.17;;;5.70;;
7575;SDS011;3829;50.798;4.358;2023-10-08T12:35:23;9.90;;;5.50;;
7575;SDS011;3829;50.798;4.358;2023-10-08T12:37:50;9.03;;;5.60;;
7575;SDS011;3829;50.798;4.358;2023-10-08T12:40:16;12.67;;;5.93;;
7575;SDS011;3829;50.798;4.358;2023-10-08T12:42:58;11.83;;;5.13;;
7575;SDS011;3829;50.798;4.358;2023-10-08T12:45:25;12.47;;;5.57;;
7575;SDS011;3829;50.798;4.358;2023-10-08T12:47:52;12.13;;;6.03;;
7575;SDS011;3829;50.798;4.358;2023-10-08T12:50:18;10.07;;;5.20;;
7575;SDS011;3829;50.798;4.358;2023-10-08T12:52:54;10.73;;;5.30;;
7575;SDS011;3829;50.798;4.358;2023-10-08T12:55:21;11.77;;;5.67;;
7575;SDS011;3829;50.798;4.358;2023-10-08T12:57:51;9.93;;;4.90;;
7575;SDS011;3829;50.798;4.358;2023-10-08T13:00:21;9.30;;;5.10;;
7575;SDS011;3829;50.798;4.358;2023-10-08T13:02:48;10.63;;;5.10;;
7575;SDS011;3829;50.798;4.358;2023-10-08T13:05:18;9.80;;;5.10;;
7575;SDS011;3829;50.798;4.358;2023-10-08T13:07:52;13.63;;;5.53;;
7575;SDS011;3829;50.798;4.358;2023-10-08T13:10:19;10.07;;;5.50;;
7575;SDS011;3829;50.798;4.358;2023-10-08T13:12:46;11.57;;;5.30;;
7575;SDS011;3829;50.798;4.358;2023-10-08T13:15:13;11.80;;;6.30;;
7575;SDS011;3829;50.798;4.358;2023-10-08T13:17:38;11.77;;;5.60;;
7575;SDS011;3829;50.798;4.358;2023-10-08T13:20:08;10.70;;;5.07;;
7575;SDS011;3829;50.798;4.358;2023-10-08T13:22:37;13.40;;;6.60;;
7575;SDS011;3829;50.798;4.358;2023-10-08T13:25:03;10.87;;;5.60;;
7575;SDS011;3829;50.798;4.358;2023-10-08T13:27:30;10.37;;;5.63;;
7575;SDS011;3829;50.798;4.358;2023-10-08T13:29:56;13.97;;;6.00;;
7575;SDS011;3829;50.798;4.358;2023-10-08T13:32:21;11.07;;;5.20;;
7575;SDS011;3829;50.798;4.358;2023-10-08T13:34:48;12.37;;;5.60;;
7575;SDS011;3829;50.798;4.358;2023-10-08T13:37:14;12.00;;;5.70;;
7575;SDS011;3829;50.798;4.358;2023-10-08T13:39:40;12.60;;;6.60;;
7575;SDS011;3829;50.798;4.358;2023-10-08T13:42:07;10.60;;;5.83;;
7575;SDS011;3829;50.798;4.358;2023-10-08T13:44:32;8.67;;;5.80;;
7575;SDS011;3829;50.798;4.358;2023-10-08T13:47:00;9.80;;;5.80;;
7575;SDS011;3829;50.798;4.358;2023-10-08T13:49:30;12.93;;;5.90;;
7575;SDS011;3829;50.798;4.358;2023-10-08T13:51:57;10.23;;;5.93;;
7575;SDS011;3829;50.798;4.358;2023-10-08T13:54:23;10.67;;;6.00;;
7575;SDS011;3829;50.798;4.358;2023-10-08T13:56:54;9.53;;;5.60;;
7575;SDS011;3829;50.798;4.358;2023-10-08T13:59:20;14.70;;;6.33;;
7575;SDS011;3829;50.798;4.358;2023-10-08T14:01:49;13.33;;;5.77;;
7575;SDS011;3829;50.798;4.358;2023-10-08T14:04:19;12.37;;;6.00;;
7575;SDS011;3829;50.798;4.358;2023-10-08T14:06:46;8.33;;;5.30;;
7575;SDS011;3829;50.798;4.358;2023-10-08T14:09:16;7.43;;;5.10;;
7575;SDS011;3829;50.798;4.358;2023-10-08T14:11:47;15.10;;;5.40;;
7575;SDS011;3829;50.798;4.358;2023-10-08T14:14:15;9.87;;;4.80;;
7575;SDS011;3829;50.798;4.358;2023-10-08T14:16:42;9.57;;;4.70;;
7575;SDS011;3829;50.798;4.358;2023-10-08T14:19:09;9.00;;;4.60;;
7575;SDS011;3829;50.798;4.358;2023-10-08T14:21:37;8.80;;;4.97;;
7575;SDS011;3829;50.798;4.358;2023-10-08T14:24:14;12.20;;;5.87;;
7575;SDS011;3829;50.798;4.358;2023-10-08T14:26:41;6.50;;;4.70;;
7575;SDS011;3829;50.798;4.358;2023-10-08T14:29:08;9.87;;;4.90;;
7575;SDS011;3829;50.798;4.358;2023-10-08T14:31:36;8.83;;;4.77;;
7575;SDS011;3829;50.798;4.358;2023-10-08T14:34:07;9.23;;;5.50;;
7575;SDS011;3829;50.798;4.358;2023-10-08T14:36:44;11.40;;;4.77;;
7575;SDS011;3829;50.798;4.358;2023-10-08T14:39:20;8.90;;;5.37;;
7575;SDS011;3829;50.798;4.358;2023-10-08T14:41:56;11.03;;;4.60;;
7575;SDS011;3829;50.798;4.358;2023-10-08T14:44:31;8.80;;;5.30;;
7575;SDS011;3829;50.798;4.358;2023-10-08T14:46:59;9.33;;;4.77;;
7575;SDS011;3829;50.798;4.358;2023-10-08T14:49:25;7.33;;;5.03;;
7575;SDS011;3829;50.798;4.358;2023-10-08T14:51:51;7.10;;;4.57;;
7575;SDS011;3829;50.798;4.358;2023-10-08T14:54:18;9.97;;;4.40;;
7575;SDS011;3829;50.798;4.358;2023-10-08T14:56:45;12.00;;;4.83;;
7575;SDS011;3829;50.798;4.358;2023-10-08T14:59:11;9.17;;;4.97;;
7575;SDS011;3829;50.798;4.358;2023-10-08T15:01:37;10.73;;;4.80;;
7575;SDS011;3829;50.798;4.358;2023-10-08T15:04:04;13.27;;;4.93;;
7575;SDS011;3829;50.798;4.358;2023-10-08T15:06:30;10.83;;;4.70;;
7575;SDS011;3829;50.798;4.358;2023-10-08T15:08:57;10.13;;;5.30;;
7575;SDS011;3829;50.798;4.358;2023-10-08T15:11:23;11.30;;;5.27;;
7575;SDS011;3829;50.798;4.358;2023-10-08T15:13:50;11.53;;;4.63;;
7575;SDS011;3829;50.798;4.358;2023-10-08T15:16:19;8.90;;;4.83;;
7575;SDS011;3829;50.798;4.358;2023-10-08T15:18:47;9.50;;;4.57;;
7575;SDS011;3829;50.798;4.358;2023-10-08T15:21:14;7.37;;;4.60;;
7575;SDS011;3829;50.798;4.358;2023-10-08T15:23:40;10.33;;;4.50;;
7575;SDS011;3829;50.798;4.358;2023-10-08T15:26:06;7.40;;;4.47;;
7575;SDS011;3829;50.798;4.358;2023-10-08T15:28:32;9.50;;;4.63;;
7575;SDS011;3829;50.798;4.358;2023-10-08T15:30:57;8.57;;;4.33;;